sensor_id;sensor_type;location;lat;lon;timestamp;pressure;altitude;pressure_sealevel;temperature;humidity
48622;BME280;34421;48.944;9.460;2023-03-20T00:00:27;98734.78;;;11.64;76.43
48622;BME280;34421;48.944;9.460;2023-03-20T00:02:53;98728.22;;;11.67;76.05
48622;BME280;34421;48.944;9.460;2023-03-20T00:05:20;98726.75;;;11.71;75.60
48622;BME280;34421;48.944;9.460;2023-03-20T00:07:46;98730.03;;;11.73;76.26
48622;BME280;34421;48.944;9.460;2023-03-20T00:10:11;98730.22;;;11.71;75.42
48622;BME280;34421;48.944;9.460;2023-03-20T00:12:37;98718.13;;;11.69;76.42
48622;BME280;34421;48.944;9.460;2023-03-20T00:15:02;98720.22;;;11.67;75.86
48622;BME280;34421;48.944;9.460;2023-03-20T00:17:29;98731.31;;;11.63;76.06
48622;BME280;34421;48.944;9.460;2023-03-20T00:19:54;98729.88;;;11.61;75.53
48622;BME280;34421;48.944;9.460;2023-03-20T00:22:19;98727.41;;;11.59;75.74
48622;BME280;34421;48.944;9.460;2023-03-20T00:24:46;98728.00;;;11.61;76.54
48622;BME280;34421;48.944;9.460;2023-03-20T00:27:12;98724.31;;;11.62;75.24
48622;BME280;34421;48.944;9.460;2023-03-20T00:29:38;98724.94;;;11.64;76.46
48622;BME280;34421;48.944;9.460;2023-03-20T00:32:04;98729.84;;;11.68;75.66
48622;BME280;34421;48.944;9.460;2023-03-20T00:34:29;98724.50;;;11.68;75.72
48622;BME280;34421;48.944;9.460;2023-03-20T00:36:55;98723.47;;;11.69;75.28
48622;BME280;34421;48.944;9.460;2023-03-20T00:39:21;98726.97;;;11.69;75.18
48622;BME280;34421;48.944;9.460;2023-03-20T00:41:51;98727.56;;;11.71;75.42
48622;BME280;34421;48.944;9.460;2023-03-20T00:44:19;98722.44;;;11.70;75.20
48622;BME280;34421;48.944;9.460;2023-03-20T00:46:46;98724.50;;;11.68;75.29
48622;BME280;34421;48.944;9.460;2023-03-20T00:49:13;98738.47;;;11.70;76.49
48622;BME280;34421;48.944;9.460;2023-03-20T00:51:38;98734.13;;;11.69;75.39
48622;BME280;34421;48.944;9.460;2023-03-20T00:54:13;98729.84;;;11.68;76.08
48622;BME280;34421;48.944;9.460;2023-03-20T00:56:42;98736.22;;;11.67;76.63
48622;BME280;34421;48.944;9.460;2023-03-20T00:59:12;98727.59;;;11.64;75.09
48622;BME280;34421;48.944;9.460;2023-03-20T01:01:39;98735.81;;;11.63;75.50
48622;BME280;34421;48.944;9.460;2023-03-20T01:04:08;98732.72;;;11.59;76.32
48622;BME280;34421;48.944;9.460;2023-03-20T01:06:33;98741.16;;;11.56;75.70
48622;BME280;34421;48.944;9.460;2023-03-20T01:08:59;98735.22;;;11.54;75.80
48622;BME280;34421;48.944;9.460;2023-03-20T01:11:24;98734.63;;;11.52;76.32
48622;BME280;34421;48.944;9.460;2023-03-20T01:13:49;98735.22;;;11.54;76.15
48622;BME280;34421;48.944;9.460;2023-03-20T01:16:20;98734.19;;;11.55;75.42
48622;BME280;34421;48.944;9.460;2023-03-20T01:18:46;98737.91;;;11.54;76.10
48622;BME280;34421;48.944;9.460;2023-03-20T01:21:11;98736.47;;;11.52;76.26
48622;BME280;34421;48.944;9.460;2023-03-20T01:23:37;98733.81;;;11.52;76.67
48622;BME280;34421;48.944;9.460;2023-03-20T01:26:03;98736.66;;;11.50;77.05
48622;BME280;34421;48.944;9.460;2023-03-20T01:28:28;98735.84;;;11.50;75.87
48622;BME280;34421;48.944;9.460;2023-03-20T01:30:54;98741.19;;;11.50;77.07
48622;BME280;34421;48.944;9.460;2023-03-20T01:33:20;98735.03;;;11.49;75.98
48622;BME280;34421;48.944;9.460;2023-03-20T01:35:46;98739.13;;;11.52;77.18
48622;BME280;34421;48.944;9.460;2023-03-20T01:38:13;98732.75;;;11.53;76.32
48622;BME280;34421;48.944;9.460;2023-03-20T01:40:46;98737.66;;;11.56;76.34
48622;BME280;34421;48.944;9.460;2023-03-20T01:43:14;98742.19;;;11.55;76.33
48622;BME280;34421;48.944;9.460;2023-03-20T01:45:43;98742.63;;;11.52;76.05
48622;BME280;34421;48.944;9.460;2023-03-20T01:48:14;98741.19;;;11.50;77.38
48622;BME280;34421;48.944;9.460;2023-03-20T01:50:40;98742.63;;;11.52;76.37
48622;BME280;34421;48.944;9.460;2023-03-20T01:55:34;98741.56;;;11.53;76.92
48622;BME280;34421;48.944;9.460;2023-03-20T01:58:02;98744.69;;;11.44;76.86
48622;BME280;34421;48.944;9.460;2023-03-20T02:00:28;98742.22;;;11.42;76.51
48622;BME280;34421;48.944;9.460;2023-03-20T02:02:53;98746.94;;;11.40;77.13
48622;BME280;34421;48.944;9.460;2023-03-20T02:05:19;98742.22;;;11.42;77.12
48622;BME280;34421;48.944;9.460;2023-03-20T02:07:48;98746.53;;;11.43;76.88
48622;BME280;34421;48.944;9.460;2023-03-20T02:10:15;98749.19;;;11.43;76.35
48622;BME280;34421;48.944;9.460;2023-03-20T02:12:40;98758.22;;;11.49;76.80
48622;BME280;34421;48.944;9.460;2023-03-20T02:15:06;98760.47;;;11.52;77.06
48622;BME280;34421;48.944;9.460;2023-03-20T02:17:31;98767.44;;;11.53;77.03
48622;BME280;34421;48.944;9.460;2023-03-20T02:35:40;98771.75;;;11.47;76.57
48622;BME280;34421;48.944;9.460;2023-03-20T02:38:10;98773.81;;;11.45;77.15
48622;BME280;34421;48.944;9.460;2023-03-20T02:43:42;98774.81;;;11.44;76.86
48622;BME280;34421;48.944;9.460;2023-03-20T02:56:30;98773.19;;;11.50;77.26
48622;BME280;34421;48.944;9.460;2023-03-20T03:01:42;98769.88;;;11.48;77.30
48622;BME280;34421;48.944;9.460;2023-03-20T03:04:12;98767.22;;;11.48;76.45
48622;BME280;34421;48.944;9.460;2023-03-20T03:06:41;98771.31;;;11.50;77.33
48622;BME280;34421;48.944;9.460;2023-03-20T03:09:09;98773.78;;;11.52;76.60
48622;BME280;34421;48.944;9.460;2023-03-20T03:11:37;98771.34;;;11.44;76.67
48622;BME280;34421;48.944;9.460;2023-03-20T03:14:06;98772.59;;;11.34;76.43
48622;BME280;34421;48.944;9.460;2023-03-20T03:16:32;98776.50;;;11.32;77.23
48622;BME280;34421;48.944;9.460;2023-03-20T03:19:04;98772.81;;;11.26;77.91
48622;BME280;34421;48.944;9.460;2023-03-20T03:21:31;98768.69;;;11.24;77.05
48622;BME280;34421;48.944;9.460;2023-03-20T03:23:57;98773.00;;;11.18;77.17
48622;BME280;34421;48.944;9.460;2023-03-20T03:26:24;98769.94;;;11.14;78.12
48622;BME280;34421;48.944;9.460;2023-03-20T03:28:53;98773.84;;;11.12;77.28
48622;BME280;34421;48.944;9.460;2023-03-20T03:31:19;98779.16;;;11.12;77.83
48622;BME280;34421;48.944;9.460;2023-03-20T03:33:47;98777.94;;;11.14;78.45
48622;BME280;34421;48.944;9.460;2023-03-20T03:36:21;98780.59;;;11.14;77.41
48622;BME280;34421;48.944;9.460;2023-03-20T03:41:51;98782.25;;;11.15;77.28
48622;BME280;34421;48.944;9.460;2023-03-20T03:44:28;98782.84;;;11.17;78.28
48622;BME280;34421;48.944;9.460;2023-03-20T03:49:28;98785.94;;;11.14;78.13
48622;BME280;34421;48.944;9.460;2023-03-20T03:51:55;98793.94;;;11.14;78.15
48622;BME280;34421;48.944;9.460;2023-03-20T03:54:41;98794.75;;;11.15;77.72
48622;BME280;34421;48.944;9.460;2023-03-20T03:57:07;98791.06;;;11.16;78.68
48622;BME280;34421;48.944;9.460;2023-03-20T03:59:36;98795.19;;;11.18;78.84
48622;BME280;34421;48.944;9.460;2023-03-20T04:02:02;98798.44;;;11.21;78.96
48622;BME280;34421;48.944;9.460;2023-03-20T04:04:29;98795.56;;;11.22;78.89
48622;BME280;34421;48.944;9.460;2023-03-20T04:06:55;98799.66;;;11.18;78.49
48622;BME280;34421;48.944;9.460;2023-03-20T04:09:20;98797.41;;;11.15;78.62
48622;BME280;34421;48.944;9.460;2023-03-20T04:11:46;98798.66;;;11.12;78.25
48622;BME280;34421;48.944;9.460;2023-03-20T04:14:13;98805.00;;;11.11;77.34
48622;BME280;34421;48.944;9.460;2023-03-20T04:16:38;98807.66;;;11.11;78.73
48622;BME280;34421;48.944;9.460;2023-03-20T04:19:04;98808.09;;;11.08;78.09
48622;BME280;34421;48.944;9.460;2023-03-20T04:21:29;98806.66;;;10.99;77.64
48622;BME280;34421;48.944;9.460;2023-03-20T04:23:55;98805.41;;;11.02;78.73
48622;BME280;34421;48.944;9.460;2023-03-20T04:26:20;98807.88;;;11.03;77.96
48622;BME280;34421;48.944;9.460;2023-03-20T04:28:45;98814.84;;;11.04;78.24
48622;BME280;34421;48.944;9.460;2023-03-20T04:31:11;98811.78;;;11.07;78.18
48622;BME280;34421;48.944;9.460;2023-03-20T04:33:36;98805.81;;;11.05;77.05
48622;BME280;34421;48.944;9.460;2023-03-20T04:36:01;98806.25;;;11.02;77.65
48622;BME280;34421;48.944;9.460;2023-03-20T04:38:27;98801.94;;;11.01;78.00
48622;BME280;34421;48.944;9.460;2023-03-20T04:40:52;98793.94;;;11.01;77.50
48622;BME280;34421;48.944;9.460;2023-03-20T04:43:17;98801.31;;;10.99;77.70
48622;BME280;34421;48.944;9.460;2023-03-20T04:45:42;98795.78;;;10.94;77.17
48622;BME280;34421;48.944;9.460;2023-03-20T04:48:08;98797.22;;;10.90;77.23
48622;BME280;34421;48.944;9.460;2023-03-20T04:50:33;98794.16;;;10.86;77.27
48622;BME280;34421;48.944;9.460;2023-03-20T04:52:58;98800.47;;;10.85;77.48
48622;BME280;34421;48.944;9.460;2023-03-20T04:55:23;98794.97;;;10.87;78.47
48622;BME280;34421;48.944;9.460;2023-03-20T04:57:49;98797.63;;;10.87;78.28
48622;BME280;34421;48.944;9.460;2023-03-20T05:00:14;98798.84;;;10.91;77.41
48622;BME280;34421;48.944;9.460;2023-03-20T05:02:40;98801.91;;;10.94;78.73
48622;BME280;34421;48.944;9.460;2023-03-20T05:05:05;98806.66;;;10.99;78.29
48622;BME280;34421;48.944;9.460;2023-03-20T05:07:30;98813.19;;;11.03;78.14
48622;BME280;34421;48.944;9.460;2023-03-20T05:09:56;98814.63;;;11.06;76.79
48622;BME280;34421;48.944;9.460;2023-03-20T05:12:22;98817.94;;;11.08;78.25
48622;BME280;34421;48.944;9.460;2023-03-20T05:14:47;98824.69;;;11.10;76.78
48622;BME280;34421;48.944;9.460;2023-03-20T05:17:12;98820.59;;;11.14;77.79
48622;BME280;34421;48.944;9.460;2023-03-20T05:19:38;98823.25;;;11.14;77.86
48622;BME280;34421;48.944;9.460;2023-03-20T05:22:03;98833.72;;;11.16;77.05
48622;BME280;34421;48.944;9.460;2023-03-20T05:24:28;98828.38;;;11.16;77.48
48622;BME280;34421;48.944;9.460;2023-03-20T05:26:54;98835.97;;;11.19;76.79
48622;BME280;34421;48.944;9.460;2023-03-20T05:29:19;98837.41;;;11.22;76.39
48622;BME280;34421;48.944;9.460;2023-03-20T05:31:44;98837.19;;;11.23;77.09
48622;BME280;34421;48.944;9.460;2023-03-20T05:34:10;98838.63;;;11.26;76.99
48622;BME280;34421;48.944;9.460;2023-03-20T05:36:35;98842.72;;;11.28;76.71
48622;BME280;34421;48.944;9.460;2023-03-20T05:39:00;98837.59;;;11.27;77.23
48622;BME280;34421;48.944;9.460;2023-03-20T05:41:25;98841.91;;;11.28;76.86
48622;BME280;34421;48.944;9.460;2023-03-20T05:43:51;98843.13;;;11.32;76.75
48622;BME280;34421;48.944;9.460;2023-03-20T05:46:16;98837.38;;;11.35;75.33
48622;BME280;34421;48.944;9.460;2023-03-20T05:48:41;98841.91;;;11.34;75.38
48622;BME280;34421;48.944;9.460;2023-03-20T05:51:06;98841.91;;;11.34;75.21
48622;BME280;34421;48.944;9.460;2023-03-20T05:53:31;98844.75;;;11.33;75.74
48622;BME280;34421;48.944;9.460;2023-03-20T05:55:57;98844.34;;;11.36;75.22
48622;BME280;34421;48.944;9.460;2023-03-20T05:58:22;98844.78;;;11.39;75.32
48622;BME280;34421;48.944;9.460;2023-03-20T06:00:47;98852.38;;;11.43;75.23
48622;BME280;34421;48.944;9.460;2023-03-20T06:03:12;98855.22;;;11.41;75.63
48622;BME280;34421;48.944;9.460;2023-03-20T06:05:38;98858.31;;;11.38;75.72
48622;BME280;34421;48.944;9.460;2023-03-20T06:08:03;98854.00;;;11.37;75.89
48622;BME280;34421;48.944;9.460;2023-03-20T06:10:28;98856.69;;;11.37;75.25
48622;BME280;34421;48.944;9.460;2023-03-20T06:12:54;98857.91;;;11.34;75.21
48622;BME280;34421;48.944;9.460;2023-03-20T06:15:20;98854.03;;;11.30;75.25
48622;BME280;34421;48.944;9.460;2023-03-20T06:17:45;98859.13;;;11.32;75.05
48622;BME280;34421;48.944;9.460;2023-03-20T06:20:11;98855.44;;;11.33;76.17
48622;BME280;34421;48.944;9.460;2023-03-20T06:22:36;98852.97;;;11.38;74.97
48622;BME280;34421;48.944;9.460;2023-03-20T06:25:01;98854.19;;;11.42;76.33
48622;BME280;34421;48.944;9.460;2023-03-20T06:27:27;98855.22;;;11.48;75.10
48622;BME280;34421;48.944;9.460;2023-03-20T06:29:52;98854.59;;;11.52;76.02
48622;BME280;34421;48.944;9.460;2023-03-20T06:32:17;98858.88;;;11.60;76.29
48622;BME280;34421;48.944;9.460;2023-03-20T06:34:42;98860.34;;;11.69;75.15
48622;BME280;34421;48.944;9.460;2023-03-20T06:37:07;98859.09;;;11.78;74.90
48622;BME280;34421;48.944;9.460;2023-03-20T06:39:33;98859.91;;;11.85;75.57
48622;BME280;34421;48.944;9.460;2023-03-20T06:41:58;98853.31;;;11.95;74.86
48622;BME280;34421;48.944;9.460;2023-03-20T06:44:23;98854.09;;;12.08;75.02
48622;BME280;34421;48.944;9.460;2023-03-20T06:46:49;98847.06;;;12.21;74.33
48622;BME280;34421;48.944;9.460;2023-03-20T06:49:14;98851.16;;;12.30;73.51
48622;BME280;34421;48.944;9.460;2023-03-20T06:51:40;98850.91;;;12.38;74.26
48622;BME280;34421;48.944;9.460;2023-03-20T06:54:06;98858.25;;;12.43;73.42
48622;BME280;34421;48.944;9.460;2023-03-20T06:56:31;98851.25;;;12.48;73.11
48622;BME280;34421;48.944;9.460;2023-03-20T06:58:56;98851.44;;;12.53;72.83
48622;BME280;34421;48.944;9.460;2023-03-20T07:01:21;98848.53;;;12.55;72.84
48622;BME280;34421;48.944;9.460;2023-03-20T07:03:47;98848.97;;;12.59;72.67
48622;BME280;34421;48.944;9.460;2023-03-20T07:06:12;98863.34;;;12.58;72.57
48622;BME280;34421;48.944;9.460;2023-03-20T07:08:38;98861.47;;;12.65;72.31
48622;BME280;34421;48.944;9.460;2023-03-20T07:11:03;98862.59;;;12.82;72.11
48622;BME280;34421;48.944;9.460;2023-03-20T07:13:29;98856.28;;;13.02;71.79
48622;BME280;34421;48.944;9.460;2023-03-20T07:15:54;98856.56;;;13.25;70.49
48622;BME280;34421;48.944;9.460;2023-03-20T07:18:20;98871.78;;;13.50;69.71
48622;BME280;34421;48.944;9.460;2023-03-20T07:20:45;98868.28;;;13.74;69.30
48622;BME280;34421;48.944;9.460;2023-03-20T07:23:10;98887.22;;;13.91;68.12
48622;BME280;34421;48.944;9.460;2023-03-20T07:25:36;98889.84;;;13.98;68.06
48622;BME280;34421;48.944;9.460;2023-03-20T07:28:01;98893.25;;;13.86;66.90
48622;BME280;34421;48.944;9.460;2023-03-20T07:30:26;98889.41;;;13.57;66.38
48622;BME280;34421;48.944;9.460;2023-03-20T07:32:52;98895.72;;;13.38;66.61
48622;BME280;34421;48.944;9.460;2023-03-20T07:35:17;98900.59;;;13.16;66.68
48622;BME280;34421;48.944;9.460;2023-03-20T07:37:42;98893.53;;;12.96;66.32
48622;BME280;34421;48.944;9.460;2023-03-20T07:40:08;98901.41;;;12.85;66.87
48622;BME280;34421;48.944;9.460;2023-03-20T07:42:33;98892.19;;;12.81;66.82
48622;BME280;34421;48.944;9.460;2023-03-20T07:44:59;98899.97;;;12.89;67.26
48622;BME280;34421;48.944;9.460;2023-03-20T07:47:24;98884.00;;;13.07;66.52
48622;BME280;34421;48.944;9.460;2023-03-20T07:49:49;98890.06;;;13.28;66.36
48622;BME280;34421;48.944;9.460;2023-03-20T07:52:14;98888.81;;;13.55;66.11
48622;BME280;34421;48.944;9.460;2023-03-20T07:54:41;98885.16;;;13.75;65.87
48622;BME280;34421;48.944;9.460;2023-03-20T07:57:06;98877.50;;;13.97;65.40
48622;BME280;34421;48.944;9.460;2023-03-20T07:59:31;98882.03;;;13.96;64.45
48622;BME280;34421;48.944;9.460;2023-03-20T08:01:56;98885.31;;;13.98;64.45
48622;BME280;34421;48.944;9.460;2023-03-20T08:04:22;98873.66;;;14.11;64.33
48622;BME280;34421;48.944;9.460;2023-03-20T08:06:47;98883.00;;;14.20;63.96
48622;BME280;34421;48.944;9.460;2023-03-20T08:09:12;98877.72;;;14.32;63.63
48622;BME280;34421;48.944;9.460;2023-03-20T08:11:38;98885.44;;;14.22;62.03
48622;BME280;34421;48.944;9.460;2023-03-20T08:14:03;98887.63;;;14.13;62.35
48622;BME280;34421;48.944;9.460;2023-03-20T08:16:28;98895.06;;;14.11;61.40
48622;BME280;34421;48.944;9.460;2023-03-20T08:18:54;98901.03;;;14.13;62.04
48622;BME280;34421;48.944;9.460;2023-03-20T08:21:25;98898.03;;;14.21;61.59
48622;BME280;34421;48.944;9.460;2023-03-20T08:23:51;98902.63;;;14.32;61.39
48622;BME280;34421;48.944;9.460;2023-03-20T08:26:16;98904.72;;;14.49;60.61
48622;BME280;34421;48.944;9.460;2023-03-20T08:28:41;98909.03;;;14.68;60.53
48622;BME280;34421;48.944;9.460;2023-03-20T08:31:07;98898.72;;;14.84;59.36
48622;BME280;34421;48.944;9.460;2023-03-20T08:33:32;98893.50;;;14.89;59.41
48622;BME280;34421;48.944;9.460;2023-03-20T08:35:58;98895.94;;;14.78;59.31
48622;BME280;34421;48.944;9.460;2023-03-20T08:38:23;98891.03;;;14.75;59.48
48622;BME280;34421;48.944;9.460;2023-03-20T08:40:49;98890.31;;;14.80;59.80
48622;BME280;34421;48.944;9.460;2023-03-20T08:43:14;98899.97;;;14.99;59.29
48622;BME280;34421;48.944;9.460;2023-03-20T08:45:39;98896.16;;;15.19;58.88
48622;BME280;34421;48.944;9.460;2023-03-20T08:48:05;98894.78;;;15.28;58.88
48622;BME280;34421;48.944;9.460;2023-03-20T08:50:30;98895.41;;;15.42;57.98
48622;BME280;34421;48.944;9.460;2023-03-20T08:52:55;98906.59;;;15.50;57.42
48622;BME280;34421;48.944;9.460;2023-03-20T08:55:20;98907.63;;;15.49;57.71
48622;BME280;34421;48.944;9.460;2023-03-20T08:57:46;98904.63;;;15.58;58.74
48622;BME280;34421;48.944;9.460;2023-03-20T09:00:12;98902.41;;;15.66;57.94
48622;BME280;34421;48.944;9.460;2023-03-20T09:02:39;98906.66;;;15.74;58.27
48622;BME280;34421;48.944;9.460;2023-03-20T09:05:04;98906.41;;;15.76;57.10
48622;BME280;34421;48.944;9.460;2023-03-20T09:07:30;98901.84;;;16.00;56.88
48622;BME280;34421;48.944;9.460;2023-03-20T09:09:55;98905.38;;;16.52;56.09
48622;BME280;34421;48.944;9.460;2023-03-20T09:12:20;98903.13;;;17.01;54.22
48622;BME280;34421;48.944;9.460;2023-03-20T09:14:45;98901.75;;;17.16;52.84
48622;BME280;34421;48.944;9.460;2023-03-20T09:17:11;98903.16;;;17.35;52.65
48622;BME280;34421;48.944;9.460;2023-03-20T09:19:36;98898.25;;;17.49;52.54
48622;BME280;34421;48.944;9.460;2023-03-20T09:22:08;98905.22;;;17.62;51.79
48622;BME280;34421;48.944;9.460;2023-03-20T09:24:35;98908.31;;;17.70;51.19
48622;BME280;34421;48.944;9.460;2023-03-20T09:27:00;98908.59;;;18.08;50.72
48622;BME280;34421;48.944;9.460;2023-03-20T09:29:26;98903.56;;;18.55;49.21
48622;BME280;34421;48.944;9.460;2023-03-20T09:31:51;98895.16;;;19.28;47.36
48622;BME280;34421;48.944;9.460;2023-03-20T09:34:17;98904.44;;;19.37;47.56
48622;BME280;34421;48.944;9.460;2023-03-20T09:36:42;98910.38;;;19.12;47.92
48622;BME280;34421;48.944;9.460;2023-03-20T09:39:07;98917.31;;;19.03;47.27
48622;BME280;34421;48.944;9.460;2023-03-20T09:41:32;98918.47;;;19.07;47.21
48622;BME280;34421;48.944;9.460;2023-03-20T09:44:08;98919.75;;;18.77;47.39
48622;BME280;34421;48.944;9.460;2023-03-20T09:56:39;98909.03;;;17.99;48.17
48622;BME280;34421;48.944;9.460;2023-03-20T09:59:05;98906.09;;;17.84;48.95
48622;BME280;34421;48.944;9.460;2023-03-20T10:01:52;98910.97;;;18.21;48.60
48622;BME280;34421;48.944;9.460;2023-03-20T10:04:16;98906.84;;;19.33;46.28
48622;BME280;34421;48.944;9.460;2023-03-20T10:06:41;98911.75;;;19.74;45.45
48622;BME280;34421;48.944;9.460;2023-03-20T10:11:49;98916.16;;;19.53;45.61
48622;BME280;34421;48.944;9.460;2023-03-20T10:14:42;98911.91;;;19.03;46.06
48622;BME280;34421;48.944;9.460;2023-03-20T10:19:38;98920.66;;;18.22;46.71
48622;BME280;34421;48.944;9.460;2023-03-20T10:22:10;98922.84;;;18.03;47.17
48622;BME280;34421;48.944;9.460;2023-03-20T10:24:46;98925.63;;;17.91;47.79
48622;BME280;34421;48.944;9.460;2023-03-20T10:27:29;98925.44;;;18.37;47.00
48622;BME280;34421;48.944;9.460;2023-03-20T10:35:03;98916.06;;;24.36;36.29
48622;BME280;34421;48.944;9.460;2023-03-20T10:42:44;98906.06;;;24.55;35.96
48622;BME280;34421;48.944;9.460;2023-03-20T10:47:42;98893.34;;;27.92;30.75
48622;BME280;34421;48.944;9.460;2023-03-20T10:50:10;98895.09;;;28.94;28.37
48622;BME280;34421;48.944;9.460;2023-03-20T10:52:39;98890.94;;;28.30;27.61
48622;BME280;34421;48.944;9.460;2023-03-20T10:55:06;98896.41;;;27.45;28.52
48622;BME280;34421;48.944;9.460;2023-03-20T10:57:35;98887.75;;;26.29;30.25
48622;BME280;34421;48.944;9.460;2023-03-20T11:00:02;98887.09;;;24.69;33.25
48622;BME280;34421;48.944;9.460;2023-03-20T11:02:30;98894.25;;;23.58;34.83
48622;BME280;34421;48.944;9.460;2023-03-20T11:04:57;98899.28;;;22.52;35.92
48622;BME280;34421;48.944;9.460;2023-03-20T11:07:27;98885.09;;;21.44;37.29
48622;BME280;34421;48.944;9.460;2023-03-20T11:12:35;98891.53;;;19.76;41.29
48622;BME280;34421;48.944;9.460;2023-03-20T11:15:03;98885.47;;;19.32;41.97
48622;BME280;34421;48.944;9.460;2023-03-20T11:17:36;98890.97;;;19.10;42.57
48622;BME280;34421;48.944;9.460;2023-03-20T11:20:02;98896.66;;;18.86;43.63
48622;BME280;34421;48.944;9.460;2023-03-20T11:22:29;98890.78;;;18.45;44.20
48622;BME280;34421;48.944;9.460;2023-03-20T11:24:59;98895.59;;;18.43;45.02
48622;BME280;34421;48.944;9.460;2023-03-20T11:27:28;98900.56;;;18.30;45.49
48622;BME280;34421;48.944;9.460;2023-03-20T11:29:54;98894.91;;;18.75;45.34
48622;BME280;34421;48.944;9.460;2023-03-20T11:34:48;98889.16;;;18.94;45.41
48622;BME280;34421;48.944;9.460;2023-03-20T11:37:27;98897.69;;;18.80;45.93
48622;BME280;34421;48.944;9.460;2023-03-20T11:42:23;98888.75;;;18.58;46.40
48622;BME280;34421;48.944;9.460;2023-03-20T11:44:55;98891.88;;;18.50;46.81
48622;BME280;34421;48.944;9.460;2023-03-20T11:47:21;98900.47;;;18.47;46.93
48622;BME280;34421;48.944;9.460;2023-03-20T11:49:59;98887.69;;;18.59;46.64
48622;BME280;34421;48.944;9.460;2023-03-20T11:52:26;98891.25;;;18.86;46.44
48622;BME280;34421;48.944;9.460;2023-03-20T11:54:53;98879.22;;;19.26;44.96
48622;BME280;34421;48.944;9.460;2023-03-20T11:59:55;98883.41;;;19.44;43.67
48622;BME280;34421;48.944;9.460;2023-03-20T12:02:21;98889.38;;;19.46;42.87
48622;BME280;34421;48.944;9.460;2023-03-20T12:04:47;98878.81;;;19.40;41.80
48622;BME280;34421;48.944;9.460;2023-03-20T12:12:25;98876.97;;;19.18;43.10
48622;BME280;34421;48.944;9.460;2023-03-20T12:25:30;98871.75;;;18.13;43.38
48622;BME280;34421;48.944;9.460;2023-03-20T12:28:11;98866.75;;;18.66;42.77
48622;BME280;34421;48.944;9.460;2023-03-20T12:33:32;98856.88;;;19.68;42.28
48622;BME280;34421;48.944;9.460;2023-03-20T12:35:58;98850.69;;;19.35;43.09
48622;BME280;34421;48.944;9.460;2023-03-20T12:38:26;98847.50;;;19.11;42.83
48622;BME280;34421;48.944;9.460;2023-03-20T12:40:54;98853.19;;;18.61;43.59
48622;BME280;34421;48.944;9.460;2023-03-20T12:43:26;98855.78;;;18.07;44.93
48622;BME280;34421;48.944;9.460;2023-03-20T12:48:23;98849.16;;;18.36;45.16
48622;BME280;34421;48.944;9.460;2023-03-20T12:51:10;98848.88;;;18.60;44.71
48622;BME280;34421;48.944;9.460;2023-03-20T12:53:48;98842.53;;;18.49;44.63
48622;BME280;34421;48.944;9.460;2023-03-20T12:58:58;98841.09;;;18.63;44.17
48622;BME280;34421;48.944;9.460;2023-03-20T13:01:29;98829.44;;;19.12;43.46
48622;BME280;34421;48.944;9.460;2023-03-20T13:03:58;98831.97;;;19.61;42.89
48622;BME280;34421;48.944;9.460;2023-03-20T13:16:32;98824.09;;;20.65;39.05
48622;BME280;34421;48.944;9.460;2023-03-20T13:19:04;98824.91;;;20.65;38.89
48622;BME280;34421;48.944;9.460;2023-03-20T13:24:04;98821.00;;;20.36;38.41
48622;BME280;34421;48.944;9.460;2023-03-20T13:26:37;98820.66;;;20.12;38.83
48622;BME280;34421;48.944;9.460;2023-03-20T13:31:48;98821.44;;;19.27;41.73
48622;BME280;34421;48.944;9.460;2023-03-20T13:37:07;98822.41;;;18.57;42.91
48622;BME280;34421;48.944;9.460;2023-03-20T13:42:10;98814.09;;;17.92;43.08
48622;BME280;34421;48.944;9.460;2023-03-20T13:44:38;98813.00;;;17.71;44.22
48622;BME280;34421;48.944;9.460;2023-03-20T13:47:08;98812.19;;;17.71;44.20
48622;BME280;34421;48.944;9.460;2023-03-20T13:52:14;98802.38;;;18.26;43.66
48622;BME280;34421;48.944;9.460;2023-03-20T14:05:34;98788.81;;;18.70;43.00
48622;BME280;34421;48.944;9.460;2023-03-20T14:07:54;98784.25;;;18.70;43.11
48622;BME280;34421;48.944;9.460;2023-03-20T14:15:13;98775.16;;;18.76;41.61
48622;BME280;34421;48.944;9.460;2023-03-20T14:17:42;98783.25;;;18.76;41.88
48622;BME280;34421;48.944;9.460;2023-03-20T14:20:12;98779.53;;;18.82;41.52
48622;BME280;34421;48.944;9.460;2023-03-20T14:22:44;98777.44;;;18.89;41.26
48622;BME280;34421;48.944;9.460;2023-03-20T14:25:19;98773.16;;;18.94;41.67
48622;BME280;34421;48.944;9.460;2023-03-20T14:27:56;98776.94;;;18.93;41.83
48622;BME280;34421;48.944;9.460;2023-03-20T14:38:58;98771.44;;;18.55;42.14
48622;BME280;34421;48.944;9.460;2023-03-20T14:44:02;98776.88;;;18.33;43.50
48622;BME280;34421;48.944;9.460;2023-03-20T14:52:01;98767.06;;;17.78;43.40
48622;BME280;34421;48.944;9.460;2023-03-20T14:54:38;98770.63;;;17.84;43.61
48622;BME280;34421;48.944;9.460;2023-03-20T14:57:14;98766.88;;;17.85;43.16
48622;BME280;34421;48.944;9.460;2023-03-20T14:59:41;98769.25;;;17.81;42.87
48622;BME280;34421;48.944;9.460;2023-03-20T15:02:17;98764.28;;;17.73;42.81
48622;BME280;34421;48.944;9.460;2023-03-20T15:04:46;98756.88;;;17.63;43.49
48622;BME280;34421;48.944;9.460;2023-03-20T15:07:13;98767.31;;;17.60;42.53
48622;BME280;34421;48.944;9.460;2023-03-20T15:09:40;98758.66;;;17.58;42.93
48622;BME280;34421;48.944;9.460;2023-03-20T15:12:08;98749.84;;;17.62;42.63
48622;BME280;34421;48.944;9.460;2023-03-20T15:14:35;98751.09;;;17.54;42.80
48622;BME280;34421;48.944;9.460;2023-03-20T15:17:05;98746.84;;;17.59;42.70
48622;BME280;34421;48.944;9.460;2023-03-20T15:19:31;98745.72;;;17.54;42.35
48622;BME280;34421;48.944;9.460;2023-03-20T15:21:57;98741.41;;;17.53;41.81
48622;BME280;34421;48.944;9.460;2023-03-20T15:24:28;98741.59;;;17.47;42.74
48622;BME280;34421;48.944;9.460;2023-03-20T15:26:54;98745.09;;;17.47;42.51
48622;BME280;34421;48.944;9.460;2023-03-20T15:29:21;98748.34;;;17.49;42.27
48622;BME280;34421;48.944;9.460;2023-03-20T15:31:49;98742.88;;;17.44;42.58
48622;BME280;34421;48.944;9.460;2023-03-20T15:34:19;98747.69;;;17.42;42.23
48622;BME280;34421;48.944;9.460;2023-03-20T15:36:45;98750.25;;;17.32;42.97